Aeroporto :
LOGIN :

Iscrizione | Disclaimer

   EN    FR    IT 

 










Sommario :    VFR   VFR Marginale   IFR   IFR Intensivo   IFR Molto Intensivo
Visibilità : 
Base nubi : 
>= 8 km
>= 3000ft
5 / 8 km
1000 / 3000 ft
1500m / 5 km
500 / 1000 ft
800 / 1500m
200 / 500 ft
< 800m
< 200 ft
Simboli :   Temporali  Nebbia  Neve Forte  Precipitazioni Forti  Vento > 20 kt
SIGMETs :   Varie  Temporali  Ghiacco  Turbolenza  Onda orograficha  Ceneri Vulcaniche






- Altitudine del aeroporto : 171 ft
- Codice IATA : EGC


LFBE - Bergerac

ULTIMO METAR :
  • 230200Z AUTO 12004KT 080V160 9999 // ///CB 11/09 Q0985

METARs OBSOLETI :
  • 230130Z AUTO 13005KT 080V150 9999 // NSC 11/09 Q0985
  • 230100Z AUTO 09007KT 9999 // NSC 10/09 Q0985
  • 230030Z AUTO 09004KT 050V150 9999 // ///TCU 11/08 Q0986
  • 230000Z AUTO 11003KT 080V140 9999 // ///TCU 11/08 Q0986
  • 222330Z AUTO 13004KT 090V160 9999 // ///TCU 11/08 Q0986

TAF TAF LFBE
Valido dal 22 a 18 ore il 23 a 18 ore UTC


221700Z 2218/2318 14010KT CAVOK
TEMPO 2218/2302 14015G25KT -RA OVC060
PROB30
TEMPO 2221/2302 4000 SHRA SCT040CB BKN060TCU
BECMG 2302/2304 20010KT
TEMPO 2308/2311 BKN008
BECMG 2312/2314 26015KT BKN020
TEMPO 2312/2318 26020G30KT 2000 SHRA BKN015CB



MetMap, La meteo Aeronautica in un colpo d'occhio ! - Copyright ORBIFLY Dicembre 2007 - Disclaimer

ORBIFLY MET'MAP TEAM :

Programmazione e sviluppo : Alexandra Zaïnal
Concezione e sviluppo : Baudouin d'Aumeries
Co-Programmazione e sviluppo : Marc-Olivier Méhu
Supporto tecnico e logistico : Manuel Goepfert
Aiuto per la traduzione : Arnaldo La Scala

Contatto : metmap@orbifly.com




FONTI E CREDITI :

   NOAA